Flight Track Log - Related Links

Times and Time Zones

All times are in EDT time to prevent confusion due to time zone crossing. See the JZA7940 flight status page for this flight to view local times or setup timezone preferences in your user account.

Time Position Orientation Groundspeed Altitude Reporting Facility
EDT Latitude Longitude Course Direction KTS MPH feet Rate Location/Type
Fri 08:36:22 PM 42.9667 -87.9000 75° East 155 178 1,700  Level KMKE
Fri 08:36:34 PM 42.9667 -87.9000 75° East 151 174 2,100 2,077 Climbing KMKE
Fri 08:37:40 PM 43.0158 -87.8422 41° Northeast 264 304 4,400 1,969 Climbing Chicago Center
Fri 08:38:42 PM 42.9872 -87.7589 115° Southeast 257 296 6,300 2,177 Climbing Chicago Center
Fri 08:39:44 PM 42.9442 -87.6644 122° Southeast 286 329 8,900 2,565 Climbing Chicago Center
Fri 08:40:00 PM 43.0442 -87.1003 68° East  Level Estimated
Fri 08:40:46 PM 42.9286 -87.5472 100° East 327 376 11,600  Level Chicago Center
Fri 08:41:00 PM 43.0630 -86.9407 75° East  Level Estimated
Fri 08:41:48 PM 42.9347 -87.4256 86° East 326 375 14,300  Level Chicago Center
Fri 08:42:50 PM 42.9500 -87.2917 81° East 335 386 16,400 1,984 Climbing Chicago Center
Fri 08:43:52 PM 42.9653 -87.1619 81° East 346 398 18,400 1,500 Climbing Chicago Center
Fri 08:44:54 PM 42.9794 -87.0272 82° East 356 410 19,500 1,306 Climbing Chicago Center
Fri 08:45:56 PM 42.9958 -86.8819 81° East 383 441 21,100 1,548 Climbing Chicago Center
Fri 08:46:58 PM 43.0158 -86.7047 81° East 394 453 22,700 1,355 Climbing Chicago Center
Fri 08:48:00 PM 43.0331 -86.5519 81° East 405 466 23,900 1,161 Climbing Chicago Center
Fri 08:49:02 PM 43.0500 -86.3950 82° East 416 479 25,100 1,113 Climbing Chicago Center
Fri 08:50:04 PM 43.0675 -86.2347 81° East 424 488 26,200 968 Climbing Chicago Center
Fri 08:51:06 PM 43.0856 -86.0714 81° East 429 494 27,100 927 Climbing Chicago Center
Fri 08:52:07 PM 43.1036 -85.8892 82° East 448 516 28,100 927 Climbing Chicago Center
Fri 08:53:09 PM 43.1203 -85.7186 82° East 451 519 29,000 871 Climbing Chicago Center
Fri 08:54:11 PM 43.1378 -85.5478 82° East 453 521 29,900 726 Climbing Chicago Center
Fri 08:55:13 PM 43.1542 -85.3742 83° East 458 527 30,500 532 Climbing Chicago Center
Fri 08:56:15 PM 43.1750 -85.1619 82° East 468 539 31,000 581 Climbing Chicago Center
Fri 08:57:17 PM 43.1928 -84.9806 82° East 478 550 31,700 774 Climbing Chicago Center
Fri 08:58:19 PM 43.2092 -84.8003 83° East 480 552 32,600 585 Climbing Chicago Center
Fri 08:59:20 PM 43.2267 -84.6186 82° East 481 554 32,900 195 Climbing Chicago Center
Fri 09:00:22 PM 43.2422 -84.4325 83° East 488 562 33,000 59 Climbing Chicago Center
Fri 09:01:02 PM 43.2425 -84.2778 90° East 504 580 33,000  Level Cleveland Center
Fri 09:02:04 PM 43.2447 -84.0844 89° East 508 585 33,000  Level Cleveland Center
Fri 09:03:06 PM 43.2469 -83.8994 89° East 512 589 33,000  Level Cleveland Center
Fri 09:04:07 PM 43.2489 -83.7022 89° East 517 595 33,000  Level Cleveland Center
Fri 09:05:09 PM 43.2497 -83.5047 90° East 517 595 33,000  Level Cleveland Center
Fri 09:06:10 PM 43.2517 -83.3064 89° East 518 596 33,000 -585 Level Cleveland Center
Fri 09:07:12 PM 43.2514 -83.0683 90° East 520 598 31,800 -1,694 Descending Cleveland Center
Fri 09:08:14 PM 43.2528 -82.8694 89° East 521 600 29,500 -1,366 Descending Cleveland Center
Fri 09:09:15 PM 43.2553 -82.6811 89° East 501 577 29,000 -244 Descending Cleveland Center
Fri 09:10:17 PM 43.2714 -82.4978 83° East 487 560 29,000  Level Cleveland Center
Fri 09:11:18 PM 43.2847 -82.3114 84° East 489 563 29,000 -81 Level Cleveland Center
Fri 09:12:45 PM 43.2833 -82.0167 90° East 490 564 28,800 -1,061 Descending Toronto Center
Fri 09:13:45 PM 43.3167 -81.8333 76° East 470 541 26,400 -2,400 Descending Toronto Center
Fri 09:14:45 PM 43.3167 -81.6667 90° East 460 529 24,000 -1,500 Descending Toronto Center
Fri 09:15:45 PM 43.3333 -81.4833 83° East 450 518 23,400 -500 Descending Toronto Center
Fri 09:16:45 PM 43.3500 -81.3333 81° East 450 518 23,000 -800 Descending Toronto Center
Fri 09:17:45 PM 43.3667 -81.1667 82° East 440 506 21,800 -2,133 Descending Toronto Center
Fri 09:19:00 PM 43.3853 -80.9864 79° East  Level FlightAware Approximate
Fri 09:19:45 PM 43.3833 -80.8500 79° East 420 483 16,600  Level Toronto Center
Fri 09:20:45 PM 43.4167 -80.7167 71° East 370 426 15,100 -1,700 Descending Toronto Center
Fri 09:21:45 PM 43.4333 -80.5667 81° East 340 391 13,200 -1,850 Descending Toronto Center
Fri 09:22:45 PM 43.4500 -80.4667 77° East 330 380 11,400 -1,900 Descending Toronto Center
Fri 09:23:45 PM 43.4500 -80.3167 90° East 310 357 9,400 -2,000 Descending Toronto Center
Fri 09:24:45 PM 43.4667 -80.2333 75° East 300 345 7,400 -1,200 Descending Toronto Center
Fri 09:25:45 PM 43.4833 -80.1167 79° East 270 311 7,000 -650 Descending Toronto Center
Fri 09:26:45 PM 43.4667 -80.0500 109° East 240 276 6,100 -950 Descending Toronto Center
Fri 09:27:45 PM 43.4500 -79.9500 103° East 230 265 5,100 -950 Descending Toronto Center
Fri 09:28:45 PM 43.4833 -79.8833 55° Northeast 210 242 4,200 -550 Descending Toronto Center
Fri 09:29:45 PM 43.5333 -79.8333 36° Northeast 190 219 4,000 -450 Descending Toronto Center
Fri 09:30:45 PM 43.5667 -79.8000 36° Northeast 190 219 3,300 -800 Descending Toronto Center
Fri 09:31:45 PM 43.6000 -79.7500 47° Northeast 180 207 2,400 -850 Descending Toronto Center
Fri 09:32:45 PM 43.6333 -79.7000 47° Northeast 160 184 1,600 -800 Descending Toronto Center
Fri 09:33:45 PM 43.6500 -79.6500 65° Northeast 140 161 800 -550 Descending Toronto Center
Fri 09:34:45 PM 43.6833 -79.6333 20° North 100 115 500 -150 Descending Toronto Center
Fri 09:35:45 PM 43.6833 -79.6167 90° East 30 35 500  Level Toronto Center
Fri 09:36:45 PM 43.6833 -79.6167 90° East 20 23 500  Level Toronto Center
Fri 09:37:45 PM 43.6667 -79.6167 180° South 40 46 500  Level Toronto Center
Fri 09:38:45 PM 43.6667 -79.6167 180° South 20 23 500  Level Toronto Center
Fri 09:40:42 PM 43.6667 -79.5833 90° East 10 12 500  Level Toronto Center

Login

Don't have an account? Register now (free) for customized features, flight alerts, and more!